AUR2AL EGJB-EGJJ

Flight info

Callsign AUR2AL
Flight time 0h 10m
Altitude 5000
Route JSY/N0187F040
Aircraft SH36/M-SDFGRY/S

Departure

Time 2026-05-08 19:14
Airport Guernsey Airport (EGJB)

Arrival

Time 2026-05-08 19:24
Airport Jersey Airport (EGJJ)
Time Latitude Longitude Altitude Speed Heading
2026-05-08 19:05 49.43282 -2.59746 320 ft 0 kts 178°
2026-05-08 19:10 49.43273 -2.59740 319 ft 6 kts 131°
2026-05-08 19:10 49.43321 -2.59729 320 ft 16 kts 325°
2026-05-08 19:10 49.43340 -2.59977 317 ft 33 kts 269°
2026-05-08 19:10 49.43332 -2.60233 313 ft 39 kts 268°
2026-05-08 19:11 49.43326 -2.60554 309 ft 6 kts 273°
2026-05-08 19:11 49.43326 -2.60556 309 ft 0 kts 273°
2026-05-08 19:11 49.43336 -2.60687 307 ft 23 kts 279°
2026-05-08 19:12 49.43359 -2.60894 304 ft 34 kts 279°
2026-05-08 19:12 49.43359 -2.61225 300 ft 23 kts 279°
2026-05-08 19:12 49.43459 -2.61327 301 ft 18 kts 60°
2026-05-08 19:12 49.43469 -2.61238 305 ft 0 kts 88°
2026-05-08 19:13 49.43469 -2.61237 305 ft 1 kts 88°
2026-05-08 19:13 49.43474 -2.61049 304 ft 49 kts 88°
2026-05-08 19:13 49.43495 -2.60236 312 ft 99 kts 88°
2026-05-08 19:14 49.43529 -2.59035 434 ft 122 kts 87°
2026-05-08 19:14 49.43547 -2.57659 598 ft 134 kts 90°
2026-05-08 19:14 49.43519 -2.56222 959 ft 136 kts 90°
2026-05-08 19:14 49.43508 -2.54757 1315 ft 137 kts 90°
2026-05-08 19:15 49.43416 -2.53323 1684 ft 139 kts 117°
2026-05-08 19:15 49.42609 -2.52497 2040 ft 143 kts 156°
2026-05-08 19:15 49.41631 -2.51938 2105 ft 162 kts 155°
2026-05-08 19:15 49.40538 -2.51225 2045 ft 178 kts 153°
2026-05-08 19:16 49.39365 -2.50448 1993 ft 187 kts 155°
2026-05-08 19:16 49.38081 -2.50001 1980 ft 193 kts 168°
2026-05-08 19:16 49.36755 -2.49780 1978 ft 195 kts 171°
2026-05-08 19:16 49.35402 -2.49544 1980 ft 196 kts 170°
2026-05-08 19:17 49.34046 -2.49297 1984 ft 196 kts 169°
2026-05-08 19:17 49.32684 -2.49067 1983 ft 197 kts 170°
2026-05-08 19:17 49.31312 -2.48840 1979 ft 198 kts 170°
2026-05-08 19:17 49.29938 -2.48626 1979 ft 198 kts 170°
2026-05-08 19:18 49.28564 -2.48422 1981 ft 198 kts 170°
2026-05-08 19:18 49.27196 -2.48201 1977 ft 198 kts 171°
2026-05-08 19:18 49.25836 -2.47972 1972 ft 195 kts 170°
2026-05-08 19:18 49.24496 -2.47763 1960 ft 193 kts 171°
2026-05-08 19:19 49.23175 -2.47512 1951 ft 189 kts 163°
2026-05-08 19:19 49.22161 -2.46369 1972 ft 182 kts 124°
2026-05-08 19:19 49.21523 -2.44766 1979 ft 172 kts 119°
2026-05-08 19:19 49.20945 -2.43261 1943 ft 155 kts 120°
2026-05-08 19:20 49.20432 -2.41929 1948 ft 137 kts 120°
2026-05-08 19:20 49.20115 -2.41106 1954 ft 129 kts 119°
2026-05-08 19:20 49.19524 -2.39627 1951 ft 118 kts 120°
2026-05-08 19:20 49.19190 -2.38472 1860 ft 123 kts 100°
2026-05-08 19:21 49.19255 -2.37176 1907 ft 125 kts 83°
2026-05-08 19:21 49.19421 -2.35829 1876 ft 131 kts 81°
2026-05-08 19:21 49.19615 -2.34452 1883 ft 133 kts 79°
2026-05-08 19:21 49.19772 -2.33078 1889 ft 130 kts 84°
2026-05-08 19:22 49.19864 -2.31753 1777 ft 123 kts 88°
2026-05-08 19:22 49.19915 -2.30477 1592 ft 121 kts 86°
2026-05-08 19:22 49.20009 -2.29206 1404 ft 120 kts 84°
2026-05-08 19:22 49.20108 -2.27954 1239 ft 118 kts 84°
2026-05-08 19:23 49.20192 -2.26699 1027 ft 119 kts 84°
2026-05-08 19:23 49.20295 -2.25479 911 ft 112 kts 82°
2026-05-08 19:23 49.20396 -2.24296 794 ft 112 kts 82°
2026-05-08 19:23 49.20510 -2.23112 664 ft 112 kts 85°
2026-05-08 19:24 49.20603 -2.21930 475 ft 110 kts 83°
2026-05-08 19:24 49.20695 -2.20809 307 ft 97 kts 76°
2026-05-08 19:24 49.20773 -2.19880 276 ft 76 kts 84°
2026-05-08 19:24 49.20816 -2.19284 278 ft 44 kts 88°
2026-05-08 19:25 49.20758 -2.18891 277 ft 26 kts 116°
2026-05-08 19:25 49.20698 -2.18955 277 ft 26 kts 262°
2026-05-08 19:25 49.20688 -2.19244 276 ft 25 kts 284°
2026-05-08 19:25 49.20698 -2.19532 276 ft 28 kts 260°
2026-05-08 19:26 49.20615 -2.19726 276 ft 19 kts 259°
2026-05-08 19:26 49.20573 -2.19934 275 ft 19 kts 181°
2026-05-08 19:26 49.20441 -2.19900 275 ft 14 kts 137°
2026-05-08 19:26 49.20482 -2.19842 275 ft 0 kts 349°